^^
Saratoga-Weather Station Historical Data
Daily Summary for April 2, 2021 Units:  English    Metric   Both
Daily Weekly Monthly Yearly Custom
  High: Low: Average:
Temperature: 37.2 °F 29.8 °F 33.6 °F
Dew Point: 34 °F 28.8 °F 31.3 °F
Humidity: 96% 81% 92%
Wind Speed: 3mph 0mph 0.6mph
Wind Gust: 7mph - -
Wind- - SE
Pressure: 29.9 in 29.9 in -
Precipitation: 0 in    
Historical Graphs
 
 
Tabular Data for April 2, 2021
Time Temperature Dew Point Pressure Wind Wind Speed Wind Gust Humidity Rainfall Rate (Hourly) solar
00:01 35.8 °F 34 °F 29.9 in Calm     93% 0 in 0 W/m2
00:06 35.8 °F 34 °F 29.9 in Calm     93% 0 in 0 W/m2
00:11 35.4 °F 33.6 °F 29.9 in Calm     93% 0 in 0 W/m2
00:16 35.4 °F 33.6 °F 29.9 in Calm     93% 0 in 0 W/m2
00:21 35.2 °F 33.6 °F 29.9 in ESE 2 mph 2 mph 94% 0 in 0 W/m2
00:26 35.2 °F 33.6 °F 29.9 in Calm     94% 0 in 0 W/m2
00:31 35.4 °F 33.8 °F 29.9 in Calm   1 mph 94% 0 in 0 W/m2
00:36 35.4 °F 33.8 °F 29.9 in ESE 0.9 mph 1 mph 94% 0 in 0 W/m2
00:41 35.4 °F 33.8 °F 29.9 in Calm   1 mph 94% 0 in 0 W/m2
00:46 35.2 °F 33.6 °F 29.9 in Calm     94% 0 in 0 W/m2
00:51 35.2 °F 33.6 °F 29.9 in Calm     94% 0 in 0 W/m2
00:56 35.1 °F 33.3 °F 29.9 in Calm     93% 0 in 0 W/m2
01:01 34.9 °F 33.1 °F 29.9 in Calm     93% 0 in 0 W/m2
01:06 34.7 °F 33.1 °F 29.9 in Calm     94% 0 in 0 W/m2
01:11 34.5 °F 32.7 °F 29.9 in Calm     93% 0 in 0 W/m2
01:16 34.3 °F 32.7 °F 29.9 in Calm     94% 0 in 0 W/m2
01:21 34.3 °F 32.7 °F 29.9 in Calm   1 mph 94% 0 in 0 W/m2
01:26 34.2 °F 32.5 °F 29.9 in Calm     94% 0 in 0 W/m2
01:31 34.2 °F 32.5 °F 29.9 in Calm   1 mph 94% 0 in 0 W/m2
01:36 34 °F 32.4 °F 29.9 in Calm     94% 0 in 0 W/m2
01:41 34 °F 32.4 °F 29.9 in Calm     94% 0 in 0 W/m2
01:46 33.8 °F 32.2 °F 29.9 in Calm     94% 0 in 0 W/m2
01:51 33.6 °F 32 °F 29.9 in Calm     94% 0 in 0 W/m2
01:56 33.6 °F 32 °F 29.9 in Calm     94% 0 in 0 W/m2
02:01 33.6 °F 32.4 °F 29.9 in Calm   1 mph 95% 0 in 0 W/m2
02:06 33.4 °F 31.8 °F 29.9 in Calm     94% 0 in 0 W/m2
02:11 33.4 °F 32.2 °F 29.9 in Calm     95% 0 in 0 W/m2
02:16 33.4 °F 32.2 °F 29.9 in Calm     95% 0 in 0 W/m2
02:21 33.3 °F 32 °F 29.9 in Calm     95% 0 in 0 W/m2
02:26 33.1 °F 31.5 °F 29.9 in Calm     94% 0 in 0 W/m2
02:31 32.9 °F 31.3 °F 29.9 in Calm     94% 0 in 0 W/m2
02:36 32.7 °F 31.1 °F 29.9 in Calm     94% 0 in 0 W/m2
02:41 32.5 °F 30.9 °F 29.9 in Calm     94% 0 in 0 W/m2
02:46 32.2 °F 30.6 °F 29.9 in Calm     94% 0 in 0 W/m2
02:51 32 °F 30.6 °F 29.9 in Calm     94% 0 in 0 W/m2
02:56 31.8 °F 30.4 °F 29.9 in Calm     94% 0 in 0 W/m2
03:01 31.6 °F 30.2 °F 29.9 in Calm     94% 0 in 0 W/m2
03:06 31.6 °F 30.4 °F 29.9 in Calm     95% 0 in 0 W/m2
03:11 31.6 °F 30.4 °F 29.9 in Calm     95% 0 in 0 W/m2
03:17 31.6 °F 30.4 °F 29.9 in ESE 0.9 mph 2 mph 95% 0 in 0 W/m2
03:22 31.5 °F 30.2 °F 29.9 in Calm     95% 0 in 0 W/m2
03:27 31.5 °F 30.2 °F 29.9 in Calm     95% 0 in 0 W/m2
03:32 31.3 °F 30 °F 29.9 in Calm     95% 0 in 0 W/m2
03:37 31.1 °F 29.8 °F 29.9 in Calm     95% 0 in 0 W/m2
03:42 30.9 °F 29.7 °F 29.9 in Calm     95% 0 in 0 W/m2
03:47 30.7 °F 29.5 °F 29.9 in Calm   1 mph 95% 0 in 0 W/m2
03:52 30.7 °F 29.5 °F 29.9 in Calm     95% 0 in 0 W/m2
03:57 30.6 °F 29.3 °F 29.9 in Calm   1 mph 95% 0 in 0 W/m2
04:02 30.6 °F 29.3 °F 29.9 in ESE 0.9 mph 1 mph 95% 0 in 0 W/m2
04:07 30.6 °F 29.3 °F 29.9 in Calm   1 mph 95% 0 in 0 W/m2
04:12 30.6 °F 29.3 °F 29.9 in Calm   2 mph 95% 0 in 0 W/m2
04:17 30.6 °F 29.3 °F 29.9 in Calm   1 mph 95% 0 in 0 W/m2
04:22 30.7 °F 29.5 °F 29.9 in Calm   2 mph 95% 0 in 0 W/m2
04:27 30.9 °F 29.8 °F 29.9 in SSE 0.9 mph 2 mph 96% 0 in 0 W/m2
04:32 30.9 °F 29.8 °F 29.9 in Calm     96% 0 in 0 W/m2
04:37 30.9 °F 29.8 °F 29.9 in SSE 0.9 mph 2 mph 96% 0 in 0 W/m2
04:42 30.9 °F 29.8 °F 29.9 in Calm     96% 0 in 0 W/m2
04:47 30.9 °F 29.8 °F 29.9 in SSE 0.9 mph 2 mph 96% 0 in 0 W/m2
04:52 30.9 °F 29.8 °F 29.9 in Calm   1 mph 96% 0 in 0 W/m2
04:57 30.9 °F 29.8 °F 29.9 in NW 0.9 mph 1 mph 96% 0 in 0 W/m2
05:02 31.3 °F 30.2 °F 29.9 in Calm   3 mph 96% 0 in 0 W/m2
05:07 31.5 °F 30.4 °F 29.9 in Calm   2 mph 96% 0 in 0 W/m2
05:12 31.5 °F 30.4 °F 29.9 in Calm   1 mph 96% 0 in 0 W/m2
05:17 31.5 °F 30.4 °F 29.9 in Calm   2 mph 96% 0 in 0 W/m2
05:22 31.5 °F 30.4 °F 29.9 in Calm     96% 0 in 0 W/m2
05:27 31.5 °F 30.4 °F 29.9 in Calm   1 mph 96% 0 in 0 W/m2
05:32 31.5 °F 30.4 °F 29.9 in West 2 mph 2 mph 96% 0 in 0 W/m2
05:37 31.5 °F 30.2 °F 29.9 in East 0.9 mph 3 mph 95% 0 in 0 W/m2
05:42 31.5 °F 30.2 °F 29.9 in East 0.9 mph 2 mph 95% 0 in 0 W/m2
05:47 31.3 °F 30 °F 29.9 in NE 0.9 mph 3 mph 95% 0 in 0 W/m2
05:52 31.3 °F 30 °F 29.9 in Calm   2 mph 95% 0 in 0 W/m2
05:57 31.1 °F 29.8 °F 29.9 in ENE 0.9 mph 3 mph 95% 0 in 0 W/m2
06:02 30.9 °F 29.7 °F 29.9 in WNW 0.9 mph 1 mph 95% 0 in 0 W/m2
06:07 30.9 °F 29.7 °F 29.9 in Calm   1 mph 95% 0 in 0 W/m2
06:12 30.9 °F 29.7 °F 29.9 in NW 2 mph 4 mph 95% 0 in 0 W/m2
06:17 30.7 °F 29.5 °F 29.9 in Calm   3 mph 95% 0 in 0 W/m2
06:22 30.7 °F 29.5 °F 29.9 in WNW 2 mph 4 mph 95% 0 in 0 W/m2
06:27 30.7 °F 29.5 °F 29.9 in WNW 2.9 mph 6 mph 95% 0 in 0 W/m2
06:32 30.6 °F 29.3 °F 29.9 in NW 2 mph 3 mph 95% 0 in 0 W/m2
06:37 30.6 °F 29.3 °F 29.9 in WNW 2.9 mph 4 mph 95% 0 in 0 W/m2
06:42 30.4 °F 29.1 °F 29.9 in Calm   3 mph 95% 0 in 0 W/m2
06:47 30.4 °F 29.3 °F 29.9 in NNE 0.9 mph 5 mph 96% 0 in 0 W/m2
06:52 30.4 °F 29.3 °F 29.9 in NE 2 mph 3 mph 96% 0 in 0 W/m2
06:57 30.4 °F 29.3 °F 29.9 in NNE 2 mph 4 mph 96% 0 in 0 W/m2
07:02 30.2 °F 28.9 °F 29.9 in ENE 2 mph 5 mph 95% 0 in 0 W/m2
07:07 30 °F 28.9 °F 29.9 in West 2 mph 3 mph 96% 0 in 0 W/m2
07:12 30 °F 28.9 °F 29.9 in NNW 2 mph 4 mph 96% 0 in 0 W/m2
07:17 30 °F 28.9 °F 29.9 in Calm   1 mph 96% 0 in 0 W/m2
07:22 30 °F 28.9 °F 29.9 in Calm   4 mph 96% 0 in 0 W/m2
07:27 30.2 °F 29.1 °F 29.9 in Calm   2 mph 96% 0 in 0 W/m2
07:32 30.4 °F 29.3 °F 29.9 in NNW 0.9 mph 1 mph 96% 0 in 0 W/m2
07:37 30.4 °F 29.3 °F 29.9 in NE 0.9 mph 2 mph 96% 0 in 0 W/m2
07:42 30.4 °F 29.3 °F 29.9 in NNE 2 mph 2 mph 96% 0 in 0 W/m2
07:47 30.4 °F 29.3 °F 29.9 in North 0.9 mph 3 mph 96% 0 in 0 W/m2
07:52 30.4 °F 29.3 °F 29.9 in NNE 0.9 mph 2 mph 96% 0 in 0 W/m2
07:57 30.4 °F 29.3 °F 29.9 in NE 2 mph 4 mph 96% 0 in 0 W/m2
08:02 30.4 °F 29.3 °F 29.9 in Calm   1 mph 96% 0 in 0 W/m2
08:07 30.2 °F 29.1 °F 29.9 in NE 2 mph 3 mph 96% 0 in 0 W/m2
08:12 30 °F 28.9 °F 29.9 in NNE 0.9 mph 2 mph 96% 0 in 0 W/m2
08:17 30 °F 28.9 °F 29.9 in ENE 2 mph 3 mph 96% 0 in 0 W/m2
08:22 30 °F 28.9 °F 29.9 in ENE 2 mph 2 mph 96% 0 in 0 W/m2
08:27 30 °F 28.9 °F 29.9 in ENE 2 mph 6 mph 96% 0 in 0 W/m2
08:32 30 °F 28.9 °F 29.9 in Calm   1 mph 96% 0 in 0 W/m2
08:37 30 °F 28.9 °F 29.9 in NNW 2 mph 6 mph 96% 0 in 0 W/m2
08:42 30 °F 28.9 °F 29.9 in WNW 2 mph 3 mph 96% 0 in 0 W/m2
08:47 30 °F 28.9 °F 29.9 in Calm   2 mph 96% 0 in 0 W/m2
08:52 29.8 °F 28.8 °F 29.9 in Calm   3 mph 96% 0 in 5 W/m2
08:57 29.8 °F 28.8 °F 29.9 in ENE 2.9 mph 4 mph 96% 0 in 5 W/m2
09:02 30 °F 28.9 °F 29.9 in ENE 2 mph 7 mph 96% 0 in 5 W/m2
09:07 30 °F 28.9 °F 29.9 in Calm   2 mph 96% 0 in 9 W/m2
09:12 30 °F 28.9 °F 29.9 in NNE 0.9 mph 6 mph 96% 0 in 12 W/m2
09:17 30 °F 28.9 °F 29.9 in Calm     96% 0 in 14 W/m2
09:22 30.2 °F 29.1 °F 29.9 in Calm   2 mph 96% 0 in 18 W/m2
09:27 30.2 °F 29.1 °F 29.9 in Calm   4 mph 96% 0 in 18 W/m2
09:32 30.4 °F 29.3 °F 29.9 in Calm   2 mph 96% 0 in 19 W/m2
09:37 30.4 °F 29.3 °F 29.9 in NW 2 mph 3 mph 96% 0 in 19 W/m2
09:42 30.4 °F 29.3 °F 29.9 in NE 0.9 mph 2 mph 96% 0 in 25 W/m2
09:47 30.4 °F 29.3 °F 29.9 in Calm   1 mph 96% 0 in 30 W/m2
09:52 30.4 °F 29.3 °F 29.9 in NE 2 mph 3 mph 96% 0 in 35 W/m2
09:57 30.4 °F 29.3 °F 29.9 in Calm   3 mph 96% 0 in 46 W/m2
10:02 30.4 °F 29.3 °F 29.9 in Calm   1 mph 96% 0 in 47 W/m2
10:07 30.4 °F 29.3 °F 29.9 in Calm   3 mph 96% 0 in 47 W/m2
10:12 30.4 °F 29.3 °F 29.9 in Calm   1 mph 96% 0 in 53 W/m2
10:17 30.6 °F 29.5 °F 29.9 in Calm   2 mph 96% 0 in 49 W/m2
10:23 30.6 °F 29.5 °F 29.9 in North 0.9 mph 2 mph 96% 0 in 60 W/m2
10:28 30.6 °F 29.5 °F 29.9 in ENE 0.9 mph 2 mph 96% 0 in 70 W/m2
10:33 30.7 °F 29.7 °F 29.9 in Calm     96% 0 in 74 W/m2
10:38 30.7 °F 29.7 °F 29.9 in Calm   2 mph 96% 0 in 90 W/m2
10:43 30.9 °F 29.8 °F 29.9 in ENE 0.9 mph 3 mph 96% 0 in 91 W/m2
10:48 30.9 °F 29.7 °F 29.9 in NE 0.9 mph 2 mph 95% 0 in 88 W/m2
10:53 31.1 °F 29.8 °F 29.9 in Calm   3 mph 95% 0 in 98 W/m2
10:58 31.3 °F 30 °F 29.9 in Calm   2 mph 95% 0 in 102 W/m2
11:03 31.5 °F 30.2 °F 29.9 in ENE 0.9 mph 2 mph 95% 0 in 104 W/m2
11:08 31.6 °F 30.4 °F 29.9 in ENE 0.9 mph 2 mph 95% 0 in 90 W/m2
11:13 31.6 °F 30.4 °F 29.9 in East 2 mph 2 mph 95% 0 in 127 W/m2
11:18 31.8 °F 30.6 °F 29.9 in Calm   1 mph 95% 0 in 135 W/m2
11:23 32 °F 30.7 °F 29.9 in East 2 mph 3 mph 95% 0 in 153 W/m2
11:28 32.2 °F 30.9 °F 29.9 in East 0.9 mph 1 mph 95% 0 in 192 W/m2
11:33 32.4 °F 31.1 °F 29.9 in East 0.9 mph 3 mph 95% 0 in 197 W/m2
11:38 32.5 °F 31.3 °F 29.9 in East 0.9 mph 3 mph 95% 0 in 190 W/m2
11:43 32.9 °F 31.3 °F 29.9 in Calm   3 mph 94% 0 in 200 W/m2
11:53 33.3 °F 31.6 °F 29.9 in SSE 0.9 mph 1 mph 94% 0 in 218 W/m2
11:58 33.6 °F 32 °F 29.9 in ESE 2 mph 4 mph 94% 0 in 153 W/m2
12:03 33.8 °F 32 °F 29.9 in Calm   2 mph 93% 0 in 113 W/m2
12:08 34 °F 32.2 °F 29.9 in North 0.9 mph 4 mph 93% 0 in 107 W/m2
12:13 34 °F 32.2 °F 29.9 in North 0.9 mph 1 mph 93% 0 in 100 W/m2
12:18 34.2 °F 32.4 °F 29.9 in ENE 2.9 mph 3 mph 93% 0 in 113 W/m2
12:24 34.2 °F 32 °F 29.9 in Calm   1 mph 92% 0 in 127 W/m2
12:29 34.3 °F 32.2 °F 29.9 in Calm   1 mph 92% 0 in 144 W/m2
12:34 34.3 °F 32.2 °F 29.9 in NE 0.9 mph 2 mph 92% 0 in 128 W/m2
12:39 34.5 °F 32.4 °F 29.9 in Calm   1 mph 92% 0 in 116 W/m2
12:44 34.5 °F 32.2 °F 29.9 in Calm   2 mph 91% 0 in 114 W/m2
12:49 34.5 °F 32.2 °F 29.9 in ENE 0.9 mph 3 mph 91% 0 in 120 W/m2
12:54 34.5 °F 32.2 °F 29.9 in ENE 2.9 mph 3 mph 91% 0 in 135 W/m2
12:59 34.5 °F 32.2 °F 29.9 in ENE 0.9 mph 2 mph 91% 0 in 132 W/m2
13:04 34.5 °F 31.8 °F 29.9 in ENE 0.9 mph 1 mph 90% 0 in 137 W/m2
13:09 34.5 °F 31.8 °F 29.9 in Calm   1 mph 90% 0 in 127 W/m2
13:14 34.5 °F 32.2 °F 29.9 in Calm     91% 0 in 127 W/m2
13:19 34.7 °F 32 °F 29.9 in Calm     90% 0 in 120 W/m2
13:24 34.9 °F 32.2 °F 29.9 in Calm     90% 0 in 113 W/m2
13:29 35.1 °F 32.4 °F 29.9 in ESE 2 mph 2 mph 90% 0 in 107 W/m2
13:34 35.2 °F 32.5 °F 29.9 in Calm   2 mph 90% 0 in 107 W/m2
13:39 35.2 °F 32.4 °F 29.9 in East 3 mph 3 mph 89% 0 in 107 W/m2
13:44 35.4 °F 32.5 °F 29.9 in Calm   1 mph 89% 0 in 105 W/m2
13:49 35.4 °F 32.5 °F 29.9 in ESE 0.9 mph 2 mph 89% 0 in 104 W/m2
13:54 35.8 °F 32.9 °F 29.9 in Calm   2 mph 89% 0 in 93 W/m2
13:59 35.8 °F 32.9 °F 29.9 in Calm   1 mph 89% 0 in 88 W/m2
14:04 36 °F 33.1 °F 29.9 in East 0.9 mph 1 mph 89% 0 in 83 W/m2
14:09 36 °F 32.7 °F 29.9 in Calm   1 mph 88% 0 in 81 W/m2
14:14 36.1 °F 32.9 °F 29.9 in Calm   1 mph 88% 0 in 79 W/m2
14:19 36.1 °F 32.7 °F 29.9 in ENE 2 mph 6 mph 87% 0 in 70 W/m2
14:24 36.1 °F 32.7 °F 29.9 in Calm   3 mph 87% 0 in 63 W/m2
14:29 36.1 °F 32.4 °F 29.9 in East 0.9 mph 5 mph 86% 0 in 63 W/m2
14:34 36.3 °F 32.5 °F 29.9 in Calm   1 mph 86% 0 in 62 W/m2
14:39 36.3 °F 32.2 °F 29.9 in ENE 0.9 mph 2 mph 85% 0 in 60 W/m2
14:44 36.5 °F 32.4 °F 29.9 in ENE 0.9 mph 1 mph 85% 0 in 56 W/m2
14:49 36.5 °F 32.4 °F 29.9 in Calm     85% 0 in 54 W/m2
14:54 36.7 °F 32.5 °F 29.9 in ESE 0.9 mph 2 mph 85% 0 in 54 W/m2
14:59 36.7 °F 32.4 °F 29.9 in East 2.9 mph 3 mph 84% 0 in 49 W/m2
15:04 36.9 °F 32.2 °F 29.9 in Calm   3 mph 83% 0 in 49 W/m2
15:09 36.9 °F 32.2 °F 29.9 in ENE 0.9 mph 3 mph 83% 0 in 54 W/m2
15:14 36.9 °F 31.8 °F 29.9 in Calm   1 mph 82% 0 in 51 W/m2
15:19 37 °F 31.8 °F 29.9 in NE 2 mph 3 mph 81% 0 in 54 W/m2
15:24 37 °F 31.8 °F 29.9 in ESE 2 mph 3 mph 81% 0 in 53 W/m2
15:29 37 °F 31.8 °F 29.9 in Calm   1 mph 81% 0 in 46 W/m2
15:34 37.2 °F 32 °F 29.9 in Calm   3 mph 81% 0 in 37 W/m2
15:39 37.2 °F 32.2 °F 29.9 in Calm   1 mph 82% 0 in 40 W/m2
15:44 37.2 °F 32.2 °F 29.9 in NE 0.9 mph 2 mph 82% 0 in 37 W/m2
15:49 37.2 °F 32.2 °F 29.9 in Calm   1 mph 82% 0 in 30 W/m2
15:54 37.2 °F 32.2 °F 29.9 in Calm   2 mph 82% 0 in 25 W/m2
16:00 37 °F 32 °F 29.9 in North 2 mph 3 mph 82% 0 in 19 W/m2
16:05 37 °F 32.4 °F 29.9 in Calm   3 mph 83% 0 in 16 W/m2
16:10 37 °F 32.4 °F 29.9 in Calm   2 mph 83% 0 in 12 W/m2
16:15 37 °F 32.4 °F 29.9 in WNW 0.9 mph 3 mph 83% 0 in 11 W/m2
16:20 36.9 °F 32.5 °F 29.9 in Calm   2 mph 84% 0 in 9 W/m2
16:25 36.9 °F 32.5 °F 29.9 in Calm   1 mph 84% 0 in 7 W/m2
16:30 36.9 °F 32.5 °F 29.9 in North 0.9 mph 1 mph 84% 0 in 5 W/m2
16:35 36.7 °F 32.4 °F 29.9 in Calm   1 mph 84% 0 in 5 W/m2
16:40 36.7 °F 32.4 °F 29.9 in Calm     84% 0 in 0 W/m2
16:45 36.5 °F 32.4 °F 29.9 in Calm   2 mph 85% 0 in 0 W/m2
16:50 36.5 °F 32.4 °F 29.9 in NE 0.9 mph 1 mph 85% 0 in 0 W/m2
16:55 36.3 °F 32.2 °F 29.9 in Calm   2 mph 85% 0 in 0 W/m2
17:00 36.3 °F 32.2 °F 29.9 in Calm   1 mph 85% 0 in 0 W/m2
17:05 36.1 °F 32 °F 29.9 in Calm   2 mph 85% 0 in 0 W/m2
17:10 36.1 °F 32 °F 29.9 in North 0.9 mph 2 mph 85% 0 in 0 W/m2
17:15 36.1 °F 32.4 °F 29.9 in Calm   1 mph 86% 0 in 0 W/m2
17:20 36 °F 32.2 °F 29.9 in Calm   2 mph 86% 0 in 0 W/m2
17:25 36 °F 32.2 °F 29.9 in NNW 2 mph 2 mph 86% 0 in 0 W/m2
17:30 36 °F 32.2 °F 29.9 in NE 0.9 mph 2 mph 86% 0 in 0 W/m2
17:35 36 °F 32.2 °F 29.9 in ENE 0.9 mph 2 mph 86% 0 in 0 W/m2
17:40 36 °F 32.2 °F 29.9 in North 2 mph 2 mph 86% 0 in 0 W/m2
17:45 35.8 °F 32 °F 29.9 in NE 0.9 mph 2 mph 86% 0 in 0 W/m2
17:50 35.8 °F 32 °F 29.9 in ENE 2 mph 3 mph 86% 0 in 0 W/m2
17:55 35.8 °F 32.4 °F 29.9 in NE 0.9 mph 2 mph 87% 0 in 0 W/m2
18:00 35.8 °F 32.4 °F 29.9 in Calm   2 mph 87% 0 in 0 W/m2
18:05 35.8 °F 32.4 °F 29.9 in NNE 0.9 mph 1 mph 87% 0 in 0 W/m2
18:10 35.6 °F 32.4 °F 29.9 in NE 0.9 mph 2 mph 88% 0 in 0 W/m2
18:16 35.6 °F 32.4 °F 29.9 in Calm   2 mph 88% 0 in 0 W/m2
18:21 35.6 °F 32.4 °F 29.9 in NE 0.9 mph 2 mph 88% 0 in 0 W/m2
18:26 35.6 °F 32.4 °F 29.9 in Calm   3 mph 88% 0 in 0 W/m2
18:31 35.4 °F 32.2 °F 29.9 in ENE 2 mph 2 mph 88% 0 in 0 W/m2
18:36 35.4 °F 32.2 °F 29.9 in Calm   2 mph 88% 0 in 0 W/m2
18:41 35.4 °F 32.2 °F 29.9 in Calm   3 mph 88% 0 in 0 W/m2
18:46 35.4 °F 32.2 °F 29.9 in North 2 mph 3 mph 88% 0 in 0 W/m2
18:51 35.4 °F 32.2 °F 29.9 in NNE 2 mph 2 mph 88% 0 in 0 W/m2
18:56 35.4 °F 32.2 °F 29.9 in Calm   3 mph 88% 0 in 0 W/m2
19:01 35.2 °F 32 °F 29.9 in NNE 0.9 mph 2 mph 88% 0 in 0 W/m2
19:06 35.2 °F 32 °F 29.9 in Calm   3 mph 88% 0 in 0 W/m2
19:11 35.2 °F 32 °F 29.9 in Calm   1 mph 88% 0 in 0 W/m2
19:16 35.2 °F 32.4 °F 29.9 in WNW 0.9 mph 2 mph 89% 0 in 0 W/m2
19:21 35.2 °F 32.4 °F 29.9 in WNW 2 mph 2 mph 89% 0 in 0 W/m2
19:26 35.2 °F 32.4 °F 29.9 in Calm   1 mph 89% 0 in 0 W/m2
19:31 35.2 °F 32.4 °F 29.9 in Calm   2 mph 89% 0 in 0 W/m2
19:36 35.2 °F 32.4 °F 29.9 in NW 2 mph 2 mph 89% 0 in 0 W/m2
19:41 35.1 °F 32.2 °F 29.9 in WNW 2 mph 2 mph 89% 0 in 0 W/m2
19:46 35.1 °F 32.2 °F 29.9 in Calm   5 mph 89% 0 in 0 W/m2
19:51 35.1 °F 32.2 °F 29.9 in West 2.9 mph 3 mph 89% 0 in 0 W/m2
19:56 35.2 °F 32.5 °F 29.9 in NNW 2.9 mph 5 mph 90% 0 in 0 W/m2
20:01 35.2 °F 32.4 °F 29.9 in NW 2 mph 2 mph 89% 0 in 0 W/m2
20:06 35.2 °F 32.4 °F 29.9 in North 2 mph 3 mph 89% 0 in 0 W/m2
20:11 35.2 °F 32.4 °F 29.9 in WNW 2.9 mph 3 mph 89% 0 in 0 W/m2
20:16 35.2 °F 32.4 °F 29.9 in West 2 mph 5 mph 89% 0 in 0 W/m2
20:21 35.2 °F 32.4 °F 29.9 in Calm   2 mph 89% 0 in 0 W/m2
20:26 35.2 °F 32.4 °F 29.9 in Calm   2 mph 89% 0 in 0 W/m2
20:31 35.2 °F 32.4 °F 29.9 in Calm   1 mph 89% 0 in 0 W/m2
20:36 35.2 °F 32.4 °F 29.9 in Calm   1 mph 89% 0 in 0 W/m2
20:41 35.1 °F 32.2 °F 29.9 in Calm   2 mph 89% 0 in 0 W/m2
20:46 35.1 °F 32.2 °F 29.9 in Calm   2 mph 89% 0 in 0 W/m2
20:51 35.1 °F 32.2 °F 29.9 in Calm   1 mph 89% 0 in 0 W/m2
20:56 34.9 °F 32 °F 29.9 in Calm     89% 0 in 0 W/m2
21:01 34.9 °F 32.2 °F 29.9 in Calm     90% 0 in 0 W/m2
21:06 34.9 °F 32.2 °F 29.9 in Calm     90% 0 in 0 W/m2
21:11 34.9 °F 32.2 °F 29.9 in Calm     90% 0 in 0 W/m2
21:16 34.9 °F 32.2 °F 29.9 in NE 2 mph 2 mph 90% 0 in 0 W/m2
21:22 34.9 °F 32.2 °F 29.9 in Calm   1 mph 90% 0 in 0 W/m2
21:27 34.9 °F 32.2 °F 29.9 in Calm   1 mph 90% 0 in 0 W/m2
21:32 34.9 °F 32.2 °F 29.9 in Calm   1 mph 90% 0 in 0 W/m2
21:37 34.9 °F 32.2 °F 29.9 in Calm   2 mph 90% 0 in 0 W/m2
21:42 34.9 °F 32.2 °F 29.9 in Calm   2 mph 90% 0 in 0 W/m2
21:47 34.9 °F 32.2 °F 29.9 in Calm   1 mph 90% 0 in 0 W/m2
21:52 34.9 °F 32.2 °F 29.9 in NE 0.9 mph 2 mph 90% 0 in 0 W/m2
21:57 34.9 °F 32.2 °F 29.9 in NE 0.9 mph 2 mph 90% 0 in 0 W/m2
22:02 34.9 °F 32.5 °F 29.9 in Calm   2 mph 91% 0 in 0 W/m2
22:07 34.9 °F 32.5 °F 29.9 in East 0.9 mph 2 mph 91% 0 in 0 W/m2
22:12 34.9 °F 32.5 °F 29.9 in Calm     91% 0 in 0 W/m2
22:17 34.9 °F 32.5 °F 29.9 in Calm   1 mph 91% 0 in 0 W/m2
22:22 34.9 °F 32.5 °F 29.9 in Calm     91% 0 in 0 W/m2
22:27 34.7 °F 32.4 °F 29.9 in Calm     91% 0 in 0 W/m2
22:32 34.7 °F 32.4 °F 29.9 in Calm   1 mph 91% 0 in 0 W/m2
22:37 34.7 °F 32.4 °F 29.9 in Calm     91% 0 in 0 W/m2
22:42 34.7 °F 32.5 °F 29.9 in ENE 2 mph 3 mph 92% 0 in 0 W/m2
22:47 34.7 °F 32.5 °F 29.9 in Calm   2 mph 92% 0 in 0 W/m2
22:52 34.7 °F 32.5 °F 29.9 in NW 2 mph 2 mph 92% 0 in 0 W/m2
22:57 34.7 °F 32.5 °F 29.9 in Calm   1 mph 92% 0 in 0 W/m2
23:02 34.5 °F 32.4 °F 29.9 in Calm   1 mph 92% 0 in 0 W/m2
23:07 34.7 °F 32.5 °F 29.9 in NW 2 mph 2 mph 92% 0 in 0 W/m2
23:12 34.5 °F 32.4 °F 29.9 in NW 2 mph 2 mph 92% 0 in 0 W/m2
23:17 34.5 °F 32.2 °F 29.9 in Calm   4 mph 91% 0 in 0 W/m2
23:22 34.5 °F 32.2 °F 29.9 in NW 0.9 mph 2 mph 91% 0 in 0 W/m2
23:27 34.5 °F 32.2 °F 29.9 in WNW 0.9 mph 2 mph 91% 0 in 0 W/m2
23:32 34.5 °F 32.2 °F 29.9 in Calm   1 mph 91% 0 in 0 W/m2
23:37 34.5 °F 32.2 °F 29.9 in Calm   2 mph 91% 0 in 0 W/m2
23:42 34.7 °F 32.4 °F 29.9 in NNW 2 mph 2 mph 91% 0 in 0 W/m2
23:47 34.9 °F 32.2 °F 29.9 in ENE 0.9 mph 3 mph 90% 0 in 0 W/m2
23:52 34.9 °F 32.2 °F 29.9 in NNE 0.9 mph 2 mph 90% 0 in 0 W/m2
23:57 34.9 °F 32 °F 29.9 in Calm   2 mph 89% 0 in 0 W/m2
Juneau County Weather
Compliments of Weather Underground - 4 mb